sensor_id;sensor_type;location;lat;lon;timestamp;P1;durP1;ratioP1;P2;durP2;ratioP2
84175;SDS011;74306;40.114;18.304;2024-03-08T00:00:48;18.50;;;11.02;;
84175;SDS011;74306;40.114;18.304;2024-03-08T00:03:18;18.63;;;10.02;;
84175;SDS011;74306;40.114;18.304;2024-03-08T00:05:48;19.65;;;10.60;;
84175;SDS011;74306;40.114;18.304;2024-03-08T00:08:17;17.88;;;9.27;;
84175;SDS011;74306;40.114;18.304;2024-03-08T00:10:46;18.50;;;9.85;;
84175;SDS011;74306;40.114;18.304;2024-03-08T00:13:18;17.75;;;9.27;;
84175;SDS011;74306;40.114;18.304;2024-03-08T00:15:47;20.42;;;9.80;;
84175;SDS011;74306;40.114;18.304;2024-03-08T00:18:17;19.50;;;8.60;;
84175;SDS011;74306;40.114;18.304;2024-03-08T00:20:46;15.27;;;7.65;;
84175;SDS011;74306;40.114;18.304;2024-03-08T00:23:16;13.13;;;6.38;;
84175;SDS011;74306;40.114;18.304;2024-03-08T00:25:45;11.98;;;6.93;;
84175;SDS011;74306;40.114;18.304;2024-03-08T00:28:14;15.57;;;6.63;;
84175;SDS011;74306;40.114;18.304;2024-03-08T00:30:46;14.30;;;6.93;;
84175;SDS011;74306;40.114;18.304;2024-03-08T00:33:16;13.82;;;6.57;;
84175;SDS011;74306;40.114;18.304;2024-03-08T00:35:45;13.05;;;6.72;;
84175;SDS011;74306;40.114;18.304;2024-03-08T00:38:14;16.70;;;6.68;;
84175;SDS011;74306;40.114;18.304;2024-03-08T00:40:46;18.10;;;7.20;;
84175;SDS011;74306;40.114;18.304;2024-03-08T00:43:15;14.10;;;8.52;;
84175;SDS011;74306;40.114;18.304;2024-03-08T00:45:45;16.67;;;9.23;;
84175;SDS011;74306;40.114;18.304;2024-03-08T00:48:15;18.45;;;9.43;;
84175;SDS011;74306;40.114;18.304;2024-03-08T00:50:45;18.95;;;8.63;;
84175;SDS011;74306;40.114;18.304;2024-03-08T00:53:14;19.77;;;10.73;;
84175;SDS011;74306;40.114;18.304;2024-03-08T00:55:44;21.90;;;11.63;;
84175;SDS011;74306;40.114;18.304;2024-03-08T00:58:13;22.92;;;11.93;;
84175;SDS011;74306;40.114;18.304;2024-03-08T01:00:43;21.98;;;11.82;;
84175;SDS011;74306;40.114;18.304;2024-03-08T01:03:14;20.80;;;11.55;;
84175;SDS011;74306;40.114;18.304;2024-03-08T01:05:43;23.65;;;11.60;;
84175;SDS011;74306;40.114;18.304;2024-03-08T01:08:12;21.70;;;11.48;;
84175;SDS011;74306;40.114;18.304;2024-03-08T01:10:42;19.23;;;10.88;;
84175;SDS011;74306;40.114;18.304;2024-03-08T01:13:11;21.23;;;11.57;;
84175;SDS011;74306;40.114;18.304;2024-03-08T01:15:40;21.52;;;11.85;;
84175;SDS011;74306;40.114;18.304;2024-03-08T01:18:10;23.08;;;11.88;;
84175;SDS011;74306;40.114;18.304;2024-03-08T01:20:41;21.40;;;11.77;;
84175;SDS011;74306;40.114;18.304;2024-03-08T01:23:10;19.77;;;11.27;;
84175;SDS011;74306;40.114;18.304;2024-03-08T01:25:41;23.15;;;11.77;;
84175;SDS011;74306;40.114;18.304;2024-03-08T01:28:11;21.83;;;11.88;;
84175;SDS011;74306;40.114;18.304;2024-03-08T01:30:40;24.67;;;12.57;;
84175;SDS011;74306;40.114;18.304;2024-03-08T01:33:10;18.25;;;11.88;;
84175;SDS011;74306;40.114;18.304;2024-03-08T01:35:41;20.05;;;10.98;;
84175;SDS011;74306;40.114;18.304;2024-03-08T01:38:10;20.75;;;11.38;;
84175;SDS011;74306;40.114;18.304;2024-03-08T01:40:39;19.17;;;11.60;;
84175;SDS011;74306;40.114;18.304;2024-03-08T01:43:16;17.23;;;11.00;;
84175;SDS011;74306;40.114;18.304;2024-03-08T01:45:49;20.35;;;10.43;;
84175;SDS011;74306;40.114;18.304;2024-03-08T01:48:18;19.65;;;9.98;;
84175;SDS011;74306;40.114;18.304;2024-03-08T01:50:52;15.50;;;9.85;;
84175;SDS011;74306;40.114;18.304;2024-03-08T01:53:23;17.83;;;9.95;;
84175;SDS011;74306;40.114;18.304;2024-03-08T01:55:55;17.88;;;9.40;;
84175;SDS011;74306;40.114;18.304;2024-03-08T01:58:26;15.95;;;10.13;;
84175;SDS011;74306;40.114;18.304;2024-03-08T02:00:57;21.30;;;9.45;;
84175;SDS011;74306;40.114;18.304;2024-03-08T02:03:27;17.02;;;9.65;;
84175;SDS011;74306;40.114;18.304;2024-03-08T02:06:00;18.90;;;9.35;;
84175;SDS011;74306;40.114;18.304;2024-03-08T02:08:48;17.13;;;9.65;;
84175;SDS011;74306;40.114;18.304;2024-03-08T02:11:17;20.08;;;10.52;;
84175;SDS011;74306;40.114;18.304;2024-03-08T02:13:48;21.25;;;11.60;;
84175;SDS011;74306;40.114;18.304;2024-03-08T02:16:20;19.10;;;10.85;;
84175;SDS011;74306;40.114;18.304;2024-03-08T02:18:50;24.27;;;12.02;;
84175;SDS011;74306;40.114;18.304;2024-03-08T02:21:20;17.83;;;12.27;;
84175;SDS011;74306;40.114;18.304;2024-03-08T02:23:50;25.00;;;12.68;;
84175;SDS011;74306;40.114;18.304;2024-03-08T02:26:20;19.77;;;12.80;;
84175;SDS011;74306;40.114;18.304;2024-03-08T02:28:50;21.30;;;12.70;;
84175;SDS011;74306;40.114;18.304;2024-03-08T02:31:19;24.42;;;15.38;;
84175;SDS011;74306;40.114;18.304;2024-03-08T02:33:49;28.77;;;15.93;;
84175;SDS011;74306;40.114;18.304;2024-03-08T02:36:18;27.75;;;17.23;;
84175;SDS011;74306;40.114;18.304;2024-03-08T02:38:50;38.50;;;22.73;;
84175;SDS011;74306;40.114;18.304;2024-03-08T02:41:19;52.90;;;31.15;;
84175;SDS011;74306;40.114;18.304;2024-03-08T02:43:49;58.20;;;36.00;;
84175;SDS011;74306;40.114;18.304;2024-03-08T02:46:18;72.03;;;37.80;;
84175;SDS011;74306;40.114;18.304;2024-03-08T02:48:48;63.72;;;35.50;;
84175;SDS011;74306;40.114;18.304;2024-03-08T02:51:18;79.63;;;42.53;;
84175;SDS011;74306;40.114;18.304;2024-03-08T02:53:47;93.60;;;48.72;;
84175;SDS011;74306;40.114;18.304;2024-03-08T02:56:19;86.82;;;46.60;;
84175;SDS011;74306;40.114;18.304;2024-03-08T02:58:49;83.93;;;47.35;;
84175;SDS011;74306;40.114;18.304;2024-03-08T03:01:18;81.47;;;46.25;;
84175;SDS011;74306;40.114;18.304;2024-03-08T03:03:47;78.53;;;44.13;;
84175;SDS011;74306;40.114;18.304;2024-03-08T03:06:17;57.30;;;33.35;;
84175;SDS011;74306;40.114;18.304;2024-03-08T03:08:49;47.08;;;28.35;;
84175;SDS011;74306;40.114;18.304;2024-03-08T03:11:19;42.25;;;25.88;;
84175;SDS011;74306;40.114;18.304;2024-03-08T03:13:49;44.53;;;25.33;;
84175;SDS011;74306;40.114;18.304;2024-03-08T03:16:18;42.17;;;24.38;;
84175;SDS011;74306;40.114;18.304;2024-03-08T03:18:48;34.53;;;20.48;;
84175;SDS011;74306;40.114;18.304;2024-03-08T03:21:17;38.13;;;19.35;;
84175;SDS011;74306;40.114;18.304;2024-03-08T03:23:47;42.83;;;24.58;;
84175;SDS011;74306;40.114;18.304;2024-03-08T03:26:18;44.88;;;23.77;;
84175;SDS011;74306;40.114;18.304;2024-03-08T03:28:49;32.17;;;17.35;;
84175;SDS011;74306;40.114;18.304;2024-03-08T03:31:19;34.45;;;17.73;;
84175;SDS011;74306;40.114;18.304;2024-03-08T03:33:51;30.45;;;16.98;;
84175;SDS011;74306;40.114;18.304;2024-03-08T03:36:20;26.13;;;15.77;;
84175;SDS011;74306;40.114;18.304;2024-03-08T03:38:51;28.13;;;14.27;;
84175;SDS011;74306;40.114;18.304;2024-03-08T03:41:33;25.83;;;15.18;;
84175;SDS011;74306;40.114;18.304;2024-03-08T03:44:02;28.00;;;15.13;;
84175;SDS011;74306;40.114;18.304;2024-03-08T03:46:32;30.17;;;16.42;;
84175;SDS011;74306;40.114;18.304;2024-03-08T03:49:03;30.98;;;17.00;;
84175;SDS011;74306;40.114;18.304;2024-03-08T03:51:32;27.38;;;14.77;;
84175;SDS011;74306;40.114;18.304;2024-03-08T03:54:02;26.60;;;14.30;;
84175;SDS011;74306;40.114;18.304;2024-03-08T03:56:33;25.05;;;13.50;;
84175;SDS011;74306;40.114;18.304;2024-03-08T03:59:02;20.70;;;12.50;;
84175;SDS011;74306;40.114;18.304;2024-03-08T04:01:31;23.77;;;11.70;;
84175;SDS011;74306;40.114;18.304;2024-03-08T04:04:03;18.52;;;12.07;;
84175;SDS011;74306;40.114;18.304;2024-03-08T04:06:33;19.42;;;11.27;;
84175;SDS011;74306;40.114;18.304;2024-03-08T04:09:02;19.48;;;10.95;;
84175;SDS011;74306;40.114;18.304;2024-03-08T04:11:34;19.75;;;11.77;;
84175;SDS011;74306;40.114;18.304;2024-03-08T04:14:03;21.08;;;11.10;;
84175;SDS011;74306;40.114;18.304;2024-03-08T04:16:33;17.65;;;10.15;;
84175;SDS011;74306;40.114;18.304;2024-03-08T04:19:03;19.70;;;10.68;;
84175;SDS011;74306;40.114;18.304;2024-03-08T04:21:32;19.83;;;10.65;;
84175;SDS011;74306;40.114;18.304;2024-03-08T04:24:02;18.60;;;10.57;;
84175;SDS011;74306;40.114;18.304;2024-03-08T04:26:31;19.70;;;10.88;;
84175;SDS011;74306;40.114;18.304;2024-03-08T04:29:02;18.48;;;10.30;;
84175;SDS011;74306;40.114;18.304;2024-03-08T04:31:31;22.23;;;11.73;;
84175;SDS011;74306;40.114;18.304;2024-03-08T04:34:01;24.17;;;11.65;;
84175;SDS011;74306;40.114;18.304;2024-03-08T04:36:32;23.17;;;11.68;;
84175;SDS011;74306;40.114;18.304;2024-03-08T04:39:02;19.17;;;10.65;;
84175;SDS011;74306;40.114;18.304;2024-03-08T04:41:32;21.50;;;11.57;;
84175;SDS011;74306;40.114;18.304;2024-03-08T04:44:04;20.27;;;12.63;;
84175;SDS011;74306;40.114;18.304;2024-03-08T04:46:35;23.20;;;12.48;;
84175;SDS011;74306;40.114;18.304;2024-03-08T04:49:04;27.60;;;14.27;;
84175;SDS011;74306;40.114;18.304;2024-03-08T04:51:34;25.95;;;14.07;;
84175;SDS011;74306;40.114;18.304;2024-03-08T04:54:04;25.95;;;14.45;;
84175;SDS011;74306;40.114;18.304;2024-03-08T04:56:35;28.02;;;15.32;;
84175;SDS011;74306;40.114;18.304;2024-03-08T04:59:04;25.52;;;15.30;;
84175;SDS011;74306;40.114;18.304;2024-03-08T05:01:35;27.20;;;16.55;;
84175;SDS011;74306;40.114;18.304;2024-03-08T05:04:05;26.80;;;15.80;;
84175;SDS011;74306;40.114;18.304;2024-03-08T05:06:36;27.10;;;15.32;;
84175;SDS011;74306;40.114;18.304;2024-03-08T05:09:05;32.22;;;16.80;;
84175;SDS011;74306;40.114;18.304;2024-03-08T05:11:42;28.05;;;16.35;;
84175;SDS011;74306;40.114;18.304;2024-03-08T05:14:12;30.58;;;16.50;;
84175;SDS011;74306;40.114;18.304;2024-03-08T05:16:43;30.77;;;17.48;;
84175;SDS011;74306;40.114;18.304;2024-03-08T05:19:15;30.58;;;17.85;;
84175;SDS011;74306;40.114;18.304;2024-03-08T05:21:45;33.50;;;20.15;;
84175;SDS011;74306;40.114;18.304;2024-03-08T05:24:15;36.63;;;21.58;;
84175;SDS011;74306;40.114;18.304;2024-03-08T05:26:46;39.67;;;22.75;;
84175;SDS011;74306;40.114;18.304;2024-03-08T05:29:16;38.35;;;21.88;;
84175;SDS011;74306;40.114;18.304;2024-03-08T05:31:46;42.90;;;25.10;;
84175;SDS011;74306;40.114;18.304;2024-03-08T05:34:17;41.00;;;24.45;;
84175;SDS011;74306;40.114;18.304;2024-03-08T05:36:48;42.03;;;25.80;;
84175;SDS011;74306;40.114;18.304;2024-03-08T05:39:18;45.35;;;25.75;;
84175;SDS011;74306;40.114;18.304;2024-03-08T05:41:49;56.72;;;33.35;;
84175;SDS011;74306;40.114;18.304;2024-03-08T05:44:18;63.85;;;35.42;;
84175;SDS011;74306;40.114;18.304;2024-03-08T05:46:48;59.05;;;34.65;;
84175;SDS011;74306;40.114;18.304;2024-03-08T05:49:18;53.38;;;32.40;;
84175;SDS011;74306;40.114;18.304;2024-03-08T05:51:47;52.97;;;32.28;;
84175;SDS011;74306;40.114;18.304;2024-03-08T05:54:16;55.33;;;31.75;;
84175;SDS011;74306;40.114;18.304;2024-03-08T05:56:51;39.47;;;23.75;;
84175;SDS011;74306;40.114;18.304;2024-03-08T05:59:21;40.80;;;24.10;;
84175;SDS011;74306;40.114;18.304;2024-03-08T06:01:51;48.17;;;26.52;;
84175;SDS011;74306;40.114;18.304;2024-03-08T06:04:20;44.15;;;25.38;;
84175;SDS011;74306;40.114;18.304;2024-03-08T06:06:50;42.88;;;24.25;;
84175;SDS011;74306;40.114;18.304;2024-03-08T06:09:23;34.85;;;21.50;;
84175;SDS011;74306;40.114;18.304;2024-03-08T06:11:53;33.05;;;19.55;;
84175;SDS011;74306;40.114;18.304;2024-03-08T06:14:24;26.40;;;15.85;;
84175;SDS011;74306;40.114;18.304;2024-03-08T06:16:54;25.05;;;14.98;;
84175;SDS011;74306;40.114;18.304;2024-03-08T06:19:23;24.13;;;14.23;;
84175;SDS011;74306;40.114;18.304;2024-03-08T06:21:52;19.50;;;12.32;;
84175;SDS011;74306;40.114;18.304;2024-03-08T06:24:22;18.95;;;11.13;;
84175;SDS011;74306;40.114;18.304;2024-03-08T06:26:53;21.13;;;11.30;;
84175;SDS011;74306;40.114;18.304;2024-03-08T06:29:23;16.88;;;10.27;;
84175;SDS011;74306;40.114;18.304;2024-03-08T06:31:53;17.20;;;9.88;;
84175;SDS011;74306;40.114;18.304;2024-03-08T06:34:23;17.42;;;9.40;;
84175;SDS011;74306;40.114;18.304;2024-03-08T06:36:52;18.50;;;9.27;;
84175;SDS011;74306;40.114;18.304;2024-03-08T06:39:28;20.27;;;9.10;;
84175;SDS011;74306;40.114;18.304;2024-03-08T06:42:00;16.73;;;8.52;;
84175;SDS011;74306;40.114;18.304;2024-03-08T06:44:29;15.10;;;8.00;;
84175;SDS011;74306;40.114;18.304;2024-03-08T06:47:00;17.50;;;8.45;;
84175;SDS011;74306;40.114;18.304;2024-03-08T06:49:29;16.63;;;7.78;;
84175;SDS011;74306;40.114;18.304;2024-03-08T06:51:59;12.30;;;7.22;;
84175;SDS011;74306;40.114;18.304;2024-03-08T06:54:28;13.10;;;7.03;;
84175;SDS011;74306;40.114;18.304;2024-03-08T06:56:57;14.10;;;7.50;;
84175;SDS011;74306;40.114;18.304;2024-03-08T06:59:28;13.40;;;7.40;;
84175;SDS011;74306;40.114;18.304;2024-03-08T07:01:57;15.65;;;8.13;;
84175;SDS011;74306;40.114;18.304;2024-03-08T07:04:28;15.05;;;7.75;;
84175;SDS011;74306;40.114;18.304;2024-03-08T07:06:57;14.68;;;8.18;;
84175;SDS011;74306;40.114;18.304;2024-03-08T07:09:26;15.32;;;7.80;;
84175;SDS011;74306;40.114;18.304;2024-03-08T07:11:56;15.05;;;7.88;;
84175;SDS011;74306;40.114;18.304;2024-03-08T07:14:26;17.92;;;7.93;;
84175;SDS011;74306;40.114;18.304;2024-03-08T07:16:56;13.90;;;7.30;;
84175;SDS011;74306;40.114;18.304;2024-03-08T07:19:25;16.35;;;7.88;;
84175;SDS011;74306;40.114;18.304;2024-03-08T07:21:55;15.30;;;7.50;;
84175;SDS011;74306;40.114;18.304;2024-03-08T07:24:24;12.57;;;6.72;;
84175;SDS011;74306;40.114;18.304;2024-03-08T07:27:06;14.85;;;6.70;;
84175;SDS011;74306;40.114;18.304;2024-03-08T07:29:37;18.25;;;7.15;;
84175;SDS011;74306;40.114;18.304;2024-03-08T07:32:06;12.30;;;6.40;;
84175;SDS011;74306;40.114;18.304;2024-03-08T07:34:48;11.82;;;5.90;;
84175;SDS011;74306;40.114;18.304;2024-03-08T07:37:18;15.13;;;5.50;;
84175;SDS011;74306;40.114;18.304;2024-03-08T07:39:47;10.77;;;5.20;;
84175;SDS011;74306;40.114;18.304;2024-03-08T07:42:17;11.40;;;5.07;;
84175;SDS011;74306;40.114;18.304;2024-03-08T07:44:48;10.40;;;5.07;;
84175;SDS011;74306;40.114;18.304;2024-03-08T07:47:17;13.95;;;5.10;;
84175;SDS011;74306;40.114;18.304;2024-03-08T07:49:48;11.93;;;5.03;;
84175;SDS011;74306;40.114;18.304;2024-03-08T07:52:17;9.65;;;4.70;;
84175;SDS011;74306;40.114;18.304;2024-03-08T07:54:48;9.13;;;4.60;;
84175;SDS011;74306;40.114;18.304;2024-03-08T07:57:17;10.13;;;3.72;;
84175;SDS011;74306;40.114;18.304;2024-03-08T07:59:49;7.90;;;4.13;;
84175;SDS011;74306;40.114;18.304;2024-03-08T08:02:18;6.45;;;2.63;;
84175;SDS011;74306;40.114;18.304;2024-03-08T08:04:47;5.90;;;2.50;;
84175;SDS011;74306;40.114;18.304;2024-03-08T08:07:17;7.25;;;2.60;;
84175;SDS011;74306;40.114;18.304;2024-03-08T08:09:46;4.63;;;1.90;;
84175;SDS011;74306;40.114;18.304;2024-03-08T08:12:16;3.83;;;1.52;;
84175;SDS011;74306;40.114;18.304;2024-03-08T08:14:45;4.07;;;1.25;;
84175;SDS011;74306;40.114;18.304;2024-03-08T08:17:16;4.60;;;1.60;;
84175;SDS011;74306;40.114;18.304;2024-03-08T08:19:45;3.83;;;1.60;;
84175;SDS011;74306;40.114;18.304;2024-03-08T08:22:15;4.05;;;1.40;;
84175;SDS011;74306;40.114;18.304;2024-03-08T08:24:45;2.97;;;1.30;;
84175;SDS011;74306;40.114;18.304;2024-03-08T08:27:14;5.68;;;1.50;;
84175;SDS011;74306;40.114;18.304;2024-03-08T08:29:44;3.50;;;1.58;;
84175;SDS011;74306;40.114;18.304;2024-03-08T08:32:13;3.80;;;1.80;;
84175;SDS011;74306;40.114;18.304;2024-03-08T08:34:45;4.18;;;1.73;;
84175;SDS011;74306;40.114;18.304;2024-03-08T08:37:14;6.90;;;1.77;;
84175;SDS011;74306;40.114;18.304;2024-03-08T08:39:45;4.22;;;1.67;;
84175;SDS011;74306;40.114;18.304;2024-03-08T08:42:14;6.85;;;1.70;;
84175;SDS011;74306;40.114;18.304;2024-03-08T08:44:45;6.60;;;2.50;;
84175;SDS011;74306;40.114;18.304;2024-03-08T08:47:15;6.10;;;2.10;;
84175;SDS011;74306;40.114;18.304;2024-03-08T08:49:47;4.05;;;1.73;;
84175;SDS011;74306;40.114;18.304;2024-03-08T08:52:18;3.28;;;1.40;;
84175;SDS011;74306;40.114;18.304;2024-03-08T08:54:47;5.10;;;1.70;;
84175;SDS011;74306;40.114;18.304;2024-03-08T08:57:17;4.95;;;1.67;;
84175;SDS011;74306;40.114;18.304;2024-03-08T08:59:48;3.75;;;1.35;;
84175;SDS011;74306;40.114;18.304;2024-03-08T09:02:17;4.70;;;1.80;;
84175;SDS011;74306;40.114;18.304;2024-03-08T09:04:49;6.63;;;2.08;;
84175;SDS011;74306;40.114;18.304;2024-03-08T09:07:19;4.15;;;1.63;;
84175;SDS011;74306;40.114;18.304;2024-03-08T09:09:49;6.50;;;1.90;;
84175;SDS011;74306;40.114;18.304;2024-03-08T09:12:18;4.45;;;1.35;;
84175;SDS011;74306;40.114;18.304;2024-03-08T09:14:48;5.60;;;1.60;;
84175;SDS011;74306;40.114;18.304;2024-03-08T09:17:17;4.25;;;1.30;;
84175;SDS011;74306;40.114;18.304;2024-03-08T09:19:48;5.93;;;1.70;;
84175;SDS011;74306;40.114;18.304;2024-03-08T09:22:18;2.95;;;1.10;;
84175;SDS011;74306;40.114;18.304;2024-03-08T09:24:48;3.30;;;1.20;;
84175;SDS011;74306;40.114;18.304;2024-03-08T09:27:18;2.05;;;1.02;;
84175;SDS011;74306;40.114;18.304;2024-03-08T09:29:47;2.72;;;1.10;;
84175;SDS011;74306;40.114;18.304;2024-03-08T09:32:16;1.88;;;1.27;;
84175;SDS011;74306;40.114;18.304;2024-03-08T09:34:46;4.80;;;1.23;;
84175;SDS011;74306;40.114;18.304;2024-03-08T09:37:16;3.25;;;1.70;;
84175;SDS011;74306;40.114;18.304;2024-03-08T09:39:46;2.95;;;1.30;;
84175;SDS011;74306;40.114;18.304;2024-03-08T09:42:15;1.77;;;1.10;;
84175;SDS011;74306;40.114;18.304;2024-03-08T09:44:45;3.95;;;0.93;;
84175;SDS011;74306;40.114;18.304;2024-03-08T09:47:15;2.45;;;1.00;;
84175;SDS011;74306;40.114;18.304;2024-03-08T09:49:46;2.58;;;1.08;;
84175;SDS011;74306;40.114;18.304;2024-03-08T09:52:17;2.58;;;0.82;;
84175;SDS011;74306;40.114;18.304;2024-03-08T09:54:47;2.42;;;1.00;;
84175;SDS011;74306;40.114;18.304;2024-03-08T09:57:17;3.25;;;1.10;;
84175;SDS011;74306;40.114;18.304;2024-03-08T09:59:48;2.58;;;1.05;;
84175;SDS011;74306;40.114;18.304;2024-03-08T10:02:18;2.13;;;1.08;;
84175;SDS011;74306;40.114;18.304;2024-03-08T10:04:48;7.00;;;1.20;;
84175;SDS011;74306;40.114;18.304;2024-03-08T10:07:22;3.10;;;1.20;;
84175;SDS011;74306;40.114;18.304;2024-03-08T10:09:53;3.33;;;1.15;;
84175;SDS011;74306;40.114;18.304;2024-03-08T10:12:22;2.13;;;0.90;;
84175;SDS011;74306;40.114;18.304;2024-03-08T10:14:54;2.17;;;1.00;;
84175;SDS011;74306;40.114;18.304;2024-03-08T10:17:24;2.15;;;1.10;;
84175;SDS011;74306;40.114;18.304;2024-03-08T10:19:54;2.28;;;1.20;;
84175;SDS011;74306;40.114;18.304;2024-03-08T10:22:28;3.20;;;1.55;;
84175;SDS011;74306;40.114;18.304;2024-03-08T10:24:59;2.38;;;1.13;;
84175;SDS011;74306;40.114;18.304;2024-03-08T10:27:30;4.68;;;1.60;;
84175;SDS011;74306;40.114;18.304;2024-03-08T10:29:59;4.10;;;1.45;;
84175;SDS011;74306;40.114;18.304;2024-03-08T10:32:30;2.28;;;1.33;;
84175;SDS011;74306;40.114;18.304;2024-03-08T10:35:00;4.22;;;1.27;;
84175;SDS011;74306;40.114;18.304;2024-03-08T10:37:31;1.73;;;1.25;;
84175;SDS011;74306;40.114;18.304;2024-03-08T10:40:02;3.33;;;1.25;;
84175;SDS011;74306;40.114;18.304;2024-03-08T10:42:40;3.30;;;1.20;;
84175;SDS011;74306;40.114;18.304;2024-03-08T10:45:19;2.13;;;1.40;;
84175;SDS011;74306;40.114;18.304;2024-03-08T10:48:03;3.25;;;1.60;;
84175;SDS011;74306;40.114;18.304;2024-03-08T10:50:50;4.70;;;2.53;;
84175;SDS011;74306;40.114;18.304;2024-03-08T10:53:23;5.03;;;2.80;;
84175;SDS011;74306;40.114;18.304;2024-03-08T10:55:55;6.13;;;2.88;;
84175;SDS011;74306;40.114;18.304;2024-03-08T10:58:26;4.60;;;2.58;;
84175;SDS011;74306;40.114;18.304;2024-03-08T11:00:57;4.47;;;2.50;;
84175;SDS011;74306;40.114;18.304;2024-03-08T11:03:45;5.47;;;3.30;;
84175;SDS011;74306;40.114;18.304;2024-03-08T11:06:22;4.10;;;2.30;;
84175;SDS011;74306;40.114;18.304;2024-03-08T11:09:00;4.78;;;2.30;;
84175;SDS011;74306;40.114;18.304;2024-03-08T11:11:31;3.17;;;1.83;;
84175;SDS011;74306;40.114;18.304;2024-03-08T11:14:02;2.42;;;1.70;;
84175;SDS011;74306;40.114;18.304;2024-03-08T11:16:37;2.97;;;1.80;;
84175;SDS011;74306;40.114;18.304;2024-03-08T11:19:24;5.97;;;2.70;;
84175;SDS011;74306;40.114;18.304;2024-03-08T11:21:57;3.30;;;1.83;;
84175;SDS011;74306;40.114;18.304;2024-03-08T11:24:29;3.22;;;1.58;;
84175;SDS011;74306;40.114;18.304;2024-03-08T11:27:09;1.98;;;1.33;;
84175;SDS011;74306;40.114;18.304;2024-03-08T11:29:40;2.08;;;1.50;;
84175;SDS011;74306;40.114;18.304;2024-03-08T11:32:10;3.22;;;1.67;;
84175;SDS011;74306;40.114;18.304;2024-03-08T11:34:41;5.80;;;1.70;;
84175;SDS011;74306;40.114;18.304;2024-03-08T11:37:12;3.75;;;1.50;;
84175;SDS011;74306;40.114;18.304;2024-03-08T11:39:47;3.20;;;1.42;;
84175;SDS011;74306;40.114;18.304;2024-03-08T11:42:18;4.80;;;1.42;;
84175;SDS011;74306;40.114;18.304;2024-03-08T11:44:50;4.20;;;1.55;;
84175;SDS011;74306;40.114;18.304;2024-03-08T11:47:21;3.03;;;1.55;;
84175;SDS011;74306;40.114;18.304;2024-03-08T11:49:51;4.78;;;1.85;;
84175;SDS011;74306;40.114;18.304;2024-03-08T11:52:21;4.72;;;1.70;;
84175;SDS011;74306;40.114;18.304;2024-03-08T11:54:54;2.55;;;1.50;;
84175;SDS011;74306;40.114;18.304;2024-03-08T11:57:25;2.72;;;1.30;;
84175;SDS011;74306;40.114;18.304;2024-03-08T11:59:55;2.40;;;1.30;;
84175;SDS011;74306;40.114;18.304;2024-03-08T12:02:25;3.67;;;1.40;;
84175;SDS011;74306;40.114;18.304;2024-03-08T12:04:57;2.63;;;1.30;;
84175;SDS011;74306;40.114;18.304;2024-03-08T12:07:28;4.13;;;1.65;;
84175;SDS011;74306;40.114;18.304;2024-03-08T12:10:15;2.80;;;1.40;;
84175;SDS011;74306;40.114;18.304;2024-03-08T12:12:45;3.03;;;1.30;;
84175;SDS011;74306;40.114;18.304;2024-03-08T12:15:15;3.92;;;1.17;;
84175;SDS011;74306;40.114;18.304;2024-03-08T12:17:47;2.17;;;1.20;;
84175;SDS011;74306;40.114;18.304;2024-03-08T12:20:18;3.13;;;1.35;;
84175;SDS011;74306;40.114;18.304;2024-03-08T12:22:51;3.90;;;1.40;;
84175;SDS011;74306;40.114;18.304;2024-03-08T12:25:22;2.08;;;1.30;;
84175;SDS011;74306;40.114;18.304;2024-03-08T12:27:55;3.58;;;1.40;;
84175;SDS011;74306;40.114;18.304;2024-03-08T12:30:26;3.70;;;1.60;;
84175;SDS011;74306;40.114;18.304;2024-03-08T12:33:01;3.97;;;1.60;;
84175;SDS011;74306;40.114;18.304;2024-03-08T12:35:30;3.38;;;1.38;;
84175;SDS011;74306;40.114;18.304;2024-03-08T12:38:00;2.35;;;1.27;;
84175;SDS011;74306;40.114;18.304;2024-03-08T12:40:32;3.92;;;1.27;;
84175;SDS011;74306;40.114;18.304;2024-03-08T12:43:08;2.55;;;1.27;;
84175;SDS011;74306;40.114;18.304;2024-03-08T12:45:37;3.55;;;1.33;;
84175;SDS011;74306;40.114;18.304;2024-03-08T12:48:11;2.08;;;1.20;;
84175;SDS011;74306;40.114;18.304;2024-03-08T12:50:42;4.28;;;1.60;;
84175;SDS011;74306;40.114;18.304;2024-03-08T12:53:15;4.95;;;1.58;;
84175;SDS011;74306;40.114;18.304;2024-03-08T12:55:46;4.63;;;1.35;;
84175;SDS011;74306;40.114;18.304;2024-03-08T12:58:15;3.28;;;1.40;;
84175;SDS011;74306;40.114;18.304;2024-03-08T13:00:45;5.78;;;1.58;;
84175;SDS011;74306;40.114;18.304;2024-03-08T13:03:15;4.60;;;1.70;;
84175;SDS011;74306;40.114;18.304;2024-03-08T13:05:44;4.35;;;1.48;;
84175;SDS011;74306;40.114;18.304;2024-03-08T13:08:15;4.03;;;1.65;;
84175;SDS011;74306;40.114;18.304;2024-03-08T13:10:46;3.53;;;1.42;;
84175;SDS011;74306;40.114;18.304;2024-03-08T13:13:18;4.07;;;1.40;;
84175;SDS011;74306;40.114;18.304;2024-03-08T13:15:47;3.45;;;1.33;;
84175;SDS011;74306;40.114;18.304;2024-03-08T13:18:17;3.70;;;1.50;;
84175;SDS011;74306;40.114;18.304;2024-03-08T13:20:47;3.05;;;1.38;;
84175;SDS011;74306;40.114;18.304;2024-03-08T13:23:19;3.47;;;1.40;;
84175;SDS011;74306;40.114;18.304;2024-03-08T13:25:50;2.13;;;1.30;;
84175;SDS011;74306;40.114;18.304;2024-03-08T13:28:19;4.25;;;1.50;;
84175;SDS011;74306;40.114;18.304;2024-03-08T13:30:54;3.28;;;1.40;;
84175;SDS011;74306;40.114;18.304;2024-03-08T13:33:25;2.72;;;1.30;;
84175;SDS011;74306;40.114;18.304;2024-03-08T13:35:55;2.83;;;1.48;;
84175;SDS011;74306;40.114;18.304;2024-03-08T13:38:49;2.33;;;1.45;;
84175;SDS011;74306;40.114;18.304;2024-03-08T13:41:20;1.92;;;1.10;;
84175;SDS011;74306;40.114;18.304;2024-03-08T13:43:52;2.53;;;1.30;;
84175;SDS011;74306;40.114;18.304;2024-03-08T13:46:23;1.58;;;1.02;;
84175;SDS011;74306;40.114;18.304;2024-03-08T13:48:54;4.22;;;1.10;;
84175;SDS011;74306;40.114;18.304;2024-03-08T13:51:28;2.15;;;1.00;;
84175;SDS011;74306;40.114;18.304;2024-03-08T13:53:58;2.05;;;1.00;;
84175;SDS011;74306;40.114;18.304;2024-03-08T13:56:29;2.72;;;1.00;;
84175;SDS011;74306;40.114;18.304;2024-03-08T13:58:58;4.63;;;1.92;;
84175;SDS011;74306;40.114;18.304;2024-03-08T14:01:29;4.15;;;1.52;;
84175;SDS011;74306;40.114;18.304;2024-03-08T14:03:58;3.80;;;1.80;;
84175;SDS011;74306;40.114;18.304;2024-03-08T14:06:28;5.40;;;2.17;;
84175;SDS011;74306;40.114;18.304;2024-03-08T14:08:57;5.13;;;2.00;;
84175;SDS011;74306;40.114;18.304;2024-03-08T14:11:26;3.45;;;1.48;;
84175;SDS011;74306;40.114;18.304;2024-03-08T14:13:57;5.75;;;1.48;;
84175;SDS011;74306;40.114;18.304;2024-03-08T14:16:27;3.20;;;1.50;;
84175;SDS011;74306;40.114;18.304;2024-03-08T14:18:56;3.97;;;1.55;;
84175;SDS011;74306;40.114;18.304;2024-03-08T14:21:30;3.55;;;1.40;;
84175;SDS011;74306;40.114;18.304;2024-03-08T14:24:00;4.45;;;1.30;;
84175;SDS011;74306;40.114;18.304;2024-03-08T14:26:33;4.60;;;1.42;;
84175;SDS011;74306;40.114;18.304;2024-03-08T14:29:05;3.55;;;1.27;;
84175;SDS011;74306;40.114;18.304;2024-03-08T14:31:35;3.13;;;1.50;;
84175;SDS011;74306;40.114;18.304;2024-03-08T14:34:04;3.50;;;1.80;;
84175;SDS011;74306;40.114;18.304;2024-03-08T14:36:34;2.63;;;1.40;;
84175;SDS011;74306;40.114;18.304;2024-03-08T14:39:05;4.40;;;1.70;;
84175;SDS011;74306;40.114;18.304;2024-03-08T14:41:36;4.05;;;1.40;;
84175;SDS011;74306;40.114;18.304;2024-03-08T14:44:05;3.03;;;1.40;;